createdAt,value
2018-06-10T00:01:18.119Z,24.70
2018-06-10T00:03:47.106Z,24.80
2018-06-10T00:06:16.091Z,24.70
2018-06-10T00:08:45.076Z,24.80
2018-06-10T00:11:14.318Z,24.70
2018-06-10T00:13:43.293Z,24.70
2018-06-10T00:16:12.269Z,24.70
2018-06-10T00:18:41.270Z,24.70
2018-06-10T00:21:10.245Z,24.70
2018-06-10T00:23:39.217Z,24.70
2018-06-10T00:26:08.212Z,24.70
2018-06-10T00:28:42.574Z,24.70
2018-06-10T00:31:11.552Z,24.70
2018-06-10T00:33:40.524Z,24.70
2018-06-10T00:36:09.493Z,24.70
2018-06-10T00:38:38.764Z,24.70
2018-06-10T00:41:07.740Z,24.60
2018-06-10T00:46:05.427Z,24.70
2018-06-10T00:48:34.384Z,24.70
2018-06-10T00:51:03.649Z,24.70
2018-06-10T00:53:32.644Z,24.70
2018-06-10T00:56:11.582Z,24.70
2018-06-10T00:58:40.569Z,24.60
2018-06-10T01:01:09.548Z,24.70
2018-06-10T01:03:38.533Z,24.70
2018-06-10T01:06:07.493Z,24.60
2018-06-10T01:08:36.473Z,24.60
2018-06-10T01:11:05.765Z,24.60
2018-06-10T01:13:34.741Z,24.60
2018-06-10T01:16:03.854Z,24.60
2018-06-10T01:18:32.824Z,24.60
2018-06-10T01:21:01.797Z,24.60
2018-06-10T01:23:30.989Z,24.60
2018-06-10T01:25:59.964Z,24.60
2018-06-10T01:28:29.883Z,24.60
2018-06-10T01:30:59.341Z,24.60
2018-06-10T01:33:28.306Z,24.60
2018-06-10T01:35:57.284Z,24.60
2018-06-10T01:38:26.272Z,24.60
2018-06-10T01:40:55.238Z,24.60
2018-06-10T01:43:24.222Z,24.60
2018-06-10T01:45:53.205Z,24.60
2018-06-10T01:48:22.201Z,24.60
2018-06-10T01:50:51.161Z,24.60
2018-06-10T01:53:20.285Z,24.60
2018-06-10T01:58:17.944Z,24.50
2018-06-10T02:00:46.921Z,24.50
2018-06-10T02:03:15.910Z,24.60
2018-06-10T02:05:44.902Z,24.60
2018-06-10T02:08:13.877Z,24.50
2018-06-10T02:10:42.857Z,24.50
2018-06-10T02:13:12.164Z,24.50
2018-06-10T02:18:09.820Z,24.50
2018-06-10T02:20:38.786Z,24.50
2018-06-10T02:23:07.770Z,24.50
2018-06-10T02:25:36.732Z,24.50
2018-06-10T02:28:05.716Z,24.50
2018-06-10T02:30:34.878Z,24.50
2018-06-10T02:35:32.517Z,24.50
2018-06-10T02:38:01.515Z,24.50
2018-06-10T02:40:30.681Z,24.40
2018-06-10T02:42:59.645Z,24.40
2018-06-10T02:45:28.805Z,24.50
2018-06-10T02:47:57.782Z,24.40
2018-06-10T02:52:55.640Z,24.40
2018-06-10T02:55:24.667Z,24.40
2018-06-10T02:57:53.653Z,24.40
2018-06-10T03:00:22.727Z,24.40
2018-06-10T03:02:51.744Z,24.40
2018-06-10T03:05:20.715Z,24.40
2018-06-10T03:07:49.765Z,24.40
2018-06-10T03:10:18.853Z,24.40
2018-06-10T03:12:47.822Z,24.40
2018-06-10T03:17:45.513Z,24.40
2018-06-10T03:20:14.476Z,24.40
2018-06-10T03:22:43.441Z,24.40
2018-06-10T03:25:12.421Z,24.40
2018-06-10T03:27:41.424Z,24.40
2018-06-10T03:30:10.414Z,24.40
2018-06-10T03:32:39.389Z,24.40
2018-06-10T03:37:37.064Z,24.40
2018-06-10T03:40:06.042Z,24.40
2018-06-10T03:42:35.025Z,24.40
2018-06-10T03:45:04.310Z,24.40
2018-06-10T03:47:33.308Z,24.40
2018-06-10T03:50:02.307Z,24.40
2018-06-10T03:55:00.099Z,24.40
2018-06-10T03:57:29.065Z,24.40
2018-06-10T03:59:58.237Z,24.40
2018-06-10T04:02:27.348Z,24.40
2018-06-10T04:04:56.326Z,24.40
2018-06-10T04:07:25.489Z,24.40
2018-06-10T04:09:54.473Z,24.40
2018-06-10T04:12:23.522Z,24.40
2018-06-10T04:14:52.508Z,24.40
2018-06-10T04:17:21.870Z,24.40
2018-06-10T04:22:19.557Z,24.40
2018-06-10T04:24:48.532Z,24.40
2018-06-10T04:27:17.677Z,24.40
2018-06-10T04:29:46.768Z,24.40
2018-06-10T04:32:15.741Z,24.40
2018-06-10T04:34:44.721Z,24.40
2018-06-10T04:37:13.674Z,24.40
2018-06-10T04:39:42.717Z,24.50
2018-06-10T04:42:11.688Z,24.40
2018-06-10T04:44:40.689Z,24.40
2018-06-10T04:49:38.531Z,24.40
2018-06-10T04:52:07.531Z,24.40
2018-06-10T04:54:36.491Z,24.50
2018-06-10T04:57:05.702Z,24.50
2018-06-10T04:59:34.673Z,24.40
2018-06-10T05:02:03.696Z,24.50
2018-06-10T05:04:32.673Z,24.40
2018-06-10T05:07:01.638Z,24.50
2018-06-10T05:09:30.617Z,24.50
2018-06-10T05:14:28.294Z,24.50
2018-06-10T05:16:57.266Z,24.50
2018-06-10T05:19:26.236Z,24.50
2018-06-10T05:21:55.194Z,24.40
2018-06-10T05:24:24.170Z,24.50
2018-06-10T05:26:53.360Z,24.50
2018-06-10T05:29:22.525Z,24.50
2018-06-10T05:34:20.298Z,24.50
2018-06-10T05:36:49.268Z,24.50
2018-06-10T05:39:18.244Z,24.50
2018-06-10T05:41:47.213Z,24.50
2018-06-10T05:44:16.349Z,24.50
2018-06-10T05:49:14.010Z,24.50
2018-06-10T05:51:42.997Z,24.50
2018-06-10T05:54:11.963Z,24.50
2018-06-10T05:56:40.953Z,24.50
2018-06-10T05:59:09.909Z,24.50
2018-06-10T06:01:38.882Z,24.50
2018-06-10T06:04:07.848Z,24.50
2018-06-10T06:06:36.824Z,24.50
2018-06-10T06:09:07.584Z,24.50
2018-06-10T06:11:36.558Z,24.50
2018-06-10T06:14:05.528Z,24.50
2018-06-10T06:16:34.514Z,24.50
2018-06-10T06:21:32.177Z,24.50
2018-06-10T06:24:01.136Z,24.60
2018-06-10T06:26:30.114Z,24.60
2018-06-10T06:28:59.067Z,24.50
2018-06-10T06:31:28.034Z,24.60
2018-06-10T06:36:25.660Z,24.60
2018-06-10T06:38:54.677Z,24.60
2018-06-10T06:41:23.650Z,24.50
2018-06-10T06:43:52.612Z,24.50
2018-06-10T06:46:21.589Z,24.50
2018-06-10T06:48:50.677Z,24.60
2018-06-10T06:51:19.677Z,24.50
2018-06-10T06:53:48.643Z,24.50
2018-06-10T06:56:17.650Z,24.60
2018-06-10T07:01:15.380Z,24.60
2018-06-10T07:06:13.002Z,24.60
2018-06-10T07:08:41.950Z,24.60
2018-06-10T07:13:39.572Z,24.60
2018-06-10T07:16:08.563Z,24.60
2018-06-10T07:21:06.445Z,24.60
2018-06-10T07:23:35.457Z,24.60
2018-06-10T07:26:04.602Z,24.60
2018-06-10T07:28:33.599Z,24.60
2018-06-10T07:31:02.565Z,24.60
2018-06-10T07:33:31.571Z,24.60
2018-06-10T07:36:00.685Z,24.60
2018-06-10T07:38:29.654Z,24.60
2018-06-10T07:40:58.631Z,24.60
2018-06-10T07:43:27.608Z,24.60
2018-06-10T07:45:56.892Z,24.60
2018-06-10T07:48:25.932Z,24.60
2018-06-10T07:50:55.017Z,24.60
2018-06-10T07:53:23.982Z,24.60
2018-06-10T07:55:52.957Z,24.60
2018-06-10T07:58:21.917Z,24.60
2018-06-10T08:00:50.873Z,24.60
2018-06-10T08:03:19.880Z,24.60
2018-06-10T08:08:17.533Z,24.60
2018-06-10T08:10:46.522Z,24.60
2018-06-10T08:13:15.472Z,24.60
2018-06-10T08:15:44.441Z,24.60
2018-06-10T08:18:13.425Z,24.60
2018-06-10T08:20:42.393Z,24.70
2018-06-10T08:23:11.385Z,24.70
2018-06-10T08:25:40.369Z,24.60
2018-06-10T08:28:09.314Z,24.70
2018-06-10T08:30:38.294Z,24.60
2018-06-10T08:33:07.272Z,24.70
2018-06-10T08:35:36.428Z,24.70
2018-06-10T08:40:34.085Z,24.70
2018-06-10T08:43:03.254Z,24.70
2018-06-10T08:48:00.958Z,24.70
2018-06-10T08:52:58.817Z,24.70
2018-06-10T08:55:27.797Z,24.70
2018-06-10T08:57:56.769Z,24.70
2018-06-10T09:00:25.731Z,24.70
2018-06-10T09:07:52.193Z,24.80
2018-06-10T09:10:21.158Z,24.80
2018-06-10T09:12:50.129Z,24.70
2018-06-10T09:15:19.089Z,24.70
2018-06-10T09:17:48.029Z,24.80
2018-06-10T09:20:17.005Z,24.80
2018-06-10T09:22:45.958Z,24.80
2018-06-10T09:25:14.953Z,24.80
2018-06-10T09:27:43.925Z,24.80
2018-06-10T09:30:12.891Z,24.80
2018-06-10T09:32:41.833Z,24.80
2018-06-10T09:35:10.797Z,24.80
2018-06-10T09:37:39.973Z,24.80
2018-06-10T09:40:09.130Z,24.90
2018-06-10T09:42:38.085Z,24.90
2018-06-10T09:45:07.103Z,24.90
2018-06-10T09:47:36.221Z,24.90
2018-06-10T09:50:05.176Z,24.90
2018-06-10T09:52:34.118Z,24.90
2018-06-10T09:57:32.073Z,24.90
2018-06-10T10:02:29.706Z,24.90
2018-06-10T10:04:58.688Z,24.90
2018-06-10T10:07:27.965Z,24.90
2018-06-10T10:09:57.121Z,24.90
2018-06-10T10:12:26.109Z,24.90
2018-06-10T10:14:55.074Z,24.90
2018-06-10T10:17:24.053Z,25.00
2018-06-10T10:19:53.028Z,25.00
2018-06-10T10:22:22.034Z,24.90
2018-06-10T10:24:51.012Z,25.00
2018-06-10T10:27:20.081Z,25.00
2018-06-10T10:29:49.061Z,25.00
2018-06-10T10:32:18.026Z,25.00
2018-06-10T10:34:47.025Z,25.00
2018-06-10T10:37:15.990Z,25.00
2018-06-10T10:39:44.962Z,25.00
2018-06-10T10:42:13.928Z,25.00
2018-06-10T10:44:42.916Z,25.10
2018-06-10T10:47:11.909Z,25.10
2018-06-10T10:49:40.873Z,25.10
2018-06-10T10:52:09.845Z,25.10
2018-06-10T10:54:38.819Z,25.10
2018-06-10T10:57:07.793Z,25.20
2018-06-10T10:59:36.751Z,25.10
2018-06-10T11:02:05.851Z,25.20
2018-06-10T11:04:34.829Z,25.20
2018-06-10T11:07:03.804Z,25.20
2018-06-10T11:09:32.801Z,25.20
2018-06-10T11:12:02.001Z,25.20
2018-06-10T11:16:59.649Z,25.20
2018-06-10T11:19:28.617Z,25.30
2018-06-10T11:21:57.601Z,25.30
2018-06-10T11:24:26.601Z,25.30
2018-06-10T11:26:55.609Z,25.30
2018-06-10T11:29:24.753Z,25.30
2018-06-10T11:31:53.752Z,25.30
2018-06-10T11:34:22.753Z,25.30
2018-06-10T11:36:51.869Z,25.40
2018-06-10T11:39:20.862Z,25.40
2018-06-10T11:41:49.837Z,25.40
2018-06-10T11:44:18.797Z,25.40
2018-06-10T11:46:47.758Z,25.40
2018-06-10T11:49:16.934Z,25.40
2018-06-10T11:51:46.109Z,25.40
2018-06-10T11:56:43.765Z,25.50
2018-06-10T11:59:12.730Z,25.50
2018-06-10T12:01:41.705Z,25.60
2018-06-10T12:04:10.668Z,25.60
2018-06-10T12:06:39.649Z,25.60
2018-06-10T12:09:08.900Z,25.60
2018-06-10T12:11:37.881Z,25.60
2018-06-10T12:14:06.878Z,25.70
2018-06-10T12:16:36.092Z,25.70
2018-06-10T12:19:05.266Z,25.70
2018-06-10T12:21:34.259Z,25.70
2018-06-10T12:24:03.224Z,25.70
2018-06-10T12:26:32.214Z,25.70
2018-06-10T12:29:01.309Z,25.70
2018-06-10T12:31:30.269Z,25.80
2018-06-10T12:33:59.441Z,25.80
2018-06-10T12:36:28.433Z,25.80
2018-06-10T12:38:57.406Z,25.80
2018-06-10T12:41:26.414Z,25.80
2018-06-10T12:43:55.553Z,25.80
2018-06-10T12:46:24.562Z,25.80
2018-06-10T12:48:53.577Z,25.80
2018-06-10T12:51:22.533Z,25.80
2018-06-10T12:53:51.505Z,25.80
2018-06-10T12:58:49.381Z,25.80
2018-06-10T13:01:18.357Z,25.80
2018-06-10T13:03:47.334Z,25.80
2018-06-10T13:06:16.305Z,25.80
2018-06-10T13:08:45.490Z,25.80
2018-06-10T13:11:14.639Z,25.80
2018-06-10T13:16:12.273Z,25.80
2018-06-10T13:18:41.653Z,25.80
2018-06-10T13:21:10.634Z,25.80
2018-06-10T13:23:39.613Z,25.90
2018-06-10T13:28:37.232Z,25.90
2018-06-10T13:31:06.216Z,25.90
2018-06-10T13:33:35.186Z,25.90
2018-06-10T13:36:04.182Z,25.90
2018-06-10T13:38:33.149Z,25.90
2018-06-10T13:41:02.110Z,25.90
2018-06-10T13:43:31.086Z,25.80
2018-06-10T13:46:00.116Z,25.80
2018-06-10T13:48:29.257Z,25.90
2018-06-10T13:50:58.439Z,25.90
2018-06-10T13:53:27.610Z,25.90
2018-06-10T14:00:54.125Z,25.90
2018-06-10T14:03:23.081Z,25.90
2018-06-10T14:05:52.058Z,25.90
2018-06-10T14:08:21.032Z,25.90
2018-06-10T14:10:50.014Z,25.90
2018-06-10T14:13:19.199Z,25.90
2018-06-10T14:15:48.182Z,25.90
2018-06-10T14:18:17.157Z,25.90
2018-06-10T14:20:46.125Z,25.90
2018-06-10T14:23:15.109Z,25.90
2018-06-10T14:25:44.101Z,26.00
2018-06-10T14:28:13.077Z,26.00
2018-06-10T14:30:42.050Z,26.00
2018-06-10T14:33:11.089Z,26.00
2018-06-10T14:35:40.078Z,26.00
2018-06-10T14:38:09.057Z,26.00
2018-06-10T14:40:38.026Z,26.00
2018-06-10T14:43:07.009Z,26.00
2018-06-10T14:45:36.033Z,26.00
2018-06-10T14:50:33.708Z,26.10
2018-06-10T14:53:02.690Z,26.10
2018-06-10T14:55:31.647Z,26.20
2018-06-10T14:58:00.936Z,26.30
2018-06-10T15:00:29.902Z,26.40
2018-06-10T15:02:59.086Z,26.80
2018-06-10T15:05:28.062Z,27.10
2018-06-10T15:07:56.732Z,27.20
2018-06-10T15:10:25.413Z,27.30
2018-06-10T15:12:54.377Z,27.30
2018-06-10T15:15:23.353Z,27.20
2018-06-10T15:17:52.313Z,27.20
2018-06-10T15:20:21.296Z,27.20
2018-06-10T15:22:50.263Z,27.10
2018-06-10T15:25:19.173Z,27.10
2018-06-10T15:27:48.137Z,27.00
2018-06-10T15:30:17.101Z,27.00
2018-06-10T15:32:46.069Z,27.00
2018-06-10T15:37:43.695Z,27.00
2018-06-10T15:40:12.669Z,26.90
2018-06-10T15:42:41.850Z,26.90
2018-06-10T15:47:39.537Z,26.80
2018-06-10T15:50:08.546Z,26.70
2018-06-10T15:52:37.679Z,26.70
2018-06-10T15:55:06.834Z,26.70
2018-06-10T15:57:35.809Z,26.70
2018-06-10T16:00:04.894Z,26.70
2018-06-10T16:02:33.874Z,26.70
2018-06-10T16:05:02.873Z,26.80
2018-06-10T16:07:31.856Z,27.00
2018-06-10T16:10:00.849Z,27.00
2018-06-10T16:12:29.833Z,26.90
2018-06-10T16:17:27.959Z,26.80
2018-06-10T16:19:57.126Z,26.70
2018-06-10T16:22:26.084Z,26.60
2018-06-10T16:24:55.042Z,26.50
2018-06-10T16:27:24.017Z,26.50
2018-06-10T16:29:52.996Z,26.40
2018-06-10T16:32:21.967Z,26.40
2018-06-10T16:34:50.924Z,26.30
2018-06-10T16:39:48.603Z,26.30
2018-06-10T16:42:17.741Z,26.20
2018-06-10T16:44:46.730Z,26.20
2018-06-10T16:47:15.729Z,26.20
2018-06-10T16:49:44.717Z,26.10
2018-06-10T16:52:13.694Z,26.10
2018-06-10T16:54:42.662Z,26.10
2018-06-10T16:57:11.617Z,26.10
2018-06-10T16:59:40.611Z,26.10
2018-06-10T17:02:09.749Z,26.10
2018-06-10T17:04:38.774Z,26.00
2018-06-10T17:07:07.750Z,26.00
2018-06-10T17:09:36.897Z,26.00
2018-06-10T17:12:05.880Z,26.00
2018-06-10T17:14:35.023Z,26.00
2018-06-10T17:17:03.721Z,26.00
2018-06-10T17:19:32.698Z,26.00
2018-06-10T17:22:01.658Z,25.90
2018-06-10T17:24:30.650Z,26.00
2018-06-10T17:26:59.787Z,25.90
2018-06-10T17:29:28.773Z,25.90
2018-06-10T17:31:57.769Z,25.90
2018-06-10T17:34:26.737Z,26.00
2018-06-10T17:36:55.706Z,26.00
2018-06-10T17:39:24.676Z,26.00
2018-06-10T17:41:53.865Z,26.00
2018-06-10T17:44:22.836Z,26.00
2018-06-10T17:46:51.605Z,25.90
2018-06-10T17:49:20.610Z,26.00
2018-06-10T17:51:49.577Z,25.90
2018-06-10T17:54:18.557Z,25.90
2018-06-10T17:56:47.558Z,25.90
2018-06-10T17:59:16.531Z,25.90
2018-06-10T18:04:13.897Z,25.90
2018-06-10T18:06:42.877Z,25.80
2018-06-10T18:09:12.021Z,25.80
2018-06-10T18:11:42.667Z,25.80
2018-06-10T18:14:11.653Z,25.80
2018-06-10T18:16:40.623Z,25.80
2018-06-10T18:19:09.721Z,25.80
2018-06-10T18:24:07.417Z,25.80
2018-06-10T18:26:36.434Z,25.70
2018-06-10T18:29:05.621Z,25.70
2018-06-10T18:31:34.719Z,25.70
2018-06-10T18:34:03.702Z,25.70
2018-06-10T18:36:32.676Z,25.70
2018-06-10T18:39:01.621Z,25.70
2018-06-10T18:46:28.191Z,25.60
2018-06-10T18:48:57.162Z,25.60
2018-06-10T18:51:26.146Z,25.60
2018-06-10T18:53:55.403Z,25.60
2018-06-10T18:56:24.386Z,25.60
2018-06-10T18:58:53.345Z,25.60
2018-06-10T19:01:22.346Z,25.60
2018-06-10T19:03:51.316Z,25.60
2018-06-10T19:06:20.283Z,25.60
2018-06-10T19:08:49.278Z,25.50
2018-06-10T19:13:46.916Z,25.50
2018-06-10T19:16:15.878Z,25.50
2018-06-10T19:21:13.545Z,25.50
2018-06-10T19:23:42.692Z,25.50
2018-06-10T19:26:11.687Z,25.50
2018-06-10T19:28:40.649Z,25.40
2018-06-10T19:31:09.791Z,25.50
2018-06-10T19:33:38.781Z,25.40
2018-06-10T19:36:07.746Z,25.40
2018-06-10T19:38:36.724Z,25.40
2018-06-10T19:41:05.698Z,25.40
2018-06-10T19:43:34.680Z,25.40
2018-06-10T19:48:32.352Z,25.40
2018-06-10T19:51:01.325Z,25.40
2018-06-10T19:53:30.313Z,25.30
2018-06-10T19:55:59.304Z,25.40
2018-06-10T19:58:28.320Z,25.30
2018-06-10T20:00:57.289Z,25.30
2018-06-10T20:03:26.551Z,25.30
2018-06-10T20:05:55.777Z,25.30
2018-06-10T20:08:24.751Z,25.30
2018-06-10T20:10:53.717Z,25.30
2018-06-10T20:13:22.737Z,25.30
2018-06-10T20:15:51.698Z,25.30
2018-06-10T20:18:20.680Z,25.30
2018-06-10T20:20:49.941Z,25.20
2018-06-10T20:23:18.925Z,25.30
2018-06-10T20:25:47.901Z,25.20
2018-06-10T20:28:16.893Z,25.20
2018-06-10T20:30:46.152Z,25.20
2018-06-10T20:33:15.190Z,25.30
2018-06-10T20:35:44.179Z,25.20
2018-06-10T20:38:13.293Z,25.20
2018-06-10T20:43:11.285Z,25.20
2018-06-10T20:45:40.545Z,25.20
2018-06-10T20:48:09.729Z,25.20
2018-06-10T20:50:38.701Z,25.20
2018-06-10T20:53:07.656Z,25.20
2018-06-10T20:55:36.634Z,25.20
2018-06-10T20:58:05.601Z,25.20
2018-06-10T21:00:34.559Z,25.20
2018-06-10T21:03:03.574Z,25.20
2018-06-10T21:05:32.545Z,25.20
2018-06-10T21:08:01.501Z,25.20
2018-06-10T21:10:30.841Z,25.20
2018-06-10T21:12:59.985Z,25.20
2018-06-10T21:17:57.604Z,25.10
2018-06-10T21:22:55.242Z,25.10
2018-06-10T21:25:24.236Z,25.10
2018-06-10T21:27:53.210Z,25.10
2018-06-10T21:30:22.162Z,25.10
2018-06-10T21:32:51.149Z,25.10
2018-06-10T21:35:20.111Z,25.10
2018-06-10T21:37:49.058Z,25.10
2018-06-10T21:40:18.033Z,25.10
2018-06-10T21:45:15.661Z,25.00
2018-06-10T21:47:44.609Z,25.10
2018-06-10T21:50:13.620Z,25.10
2018-06-10T21:52:42.566Z,25.00
2018-06-10T21:55:11.519Z,25.00
2018-06-10T21:57:40.493Z,25.00
2018-06-10T22:02:41.590Z,25.00
2018-06-10T22:05:10.734Z,25.00
2018-06-10T22:07:39.883Z,25.00
2018-06-10T22:12:37.553Z,25.00
2018-06-10T22:15:06.738Z,25.00
2018-06-10T22:17:35.778Z,25.00
2018-06-10T22:20:04.785Z,25.00
2018-06-10T22:22:33.741Z,25.00
2018-06-10T22:25:02.701Z,25.00
2018-06-10T22:27:31.673Z,25.00
2018-06-10T22:30:00.647Z,25.00
2018-06-10T22:34:58.241Z,25.00
2018-06-10T22:37:27.340Z,25.00
2018-06-10T22:39:56.321Z,25.00
2018-06-10T22:42:25.281Z,25.00
2018-06-10T22:44:54.257Z,24.90
2018-06-10T22:47:23.237Z,24.90
2018-06-10T22:49:52.205Z,25.00
2018-06-10T22:52:21.196Z,24.90
2018-06-10T22:54:50.169Z,25.00
2018-06-10T22:57:19.114Z,24.90
2018-06-10T22:59:48.083Z,24.90
2018-06-10T23:02:17.188Z,24.90
2018-06-10T23:04:46.145Z,24.90
2018-06-10T23:07:15.143Z,24.90
2018-06-10T23:09:44.277Z,24.90
2018-06-10T23:12:13.269Z,24.90
2018-06-10T23:17:10.917Z,24.90
2018-06-10T23:19:39.871Z,24.90
2018-06-10T23:22:09.068Z,24.90
2018-06-10T23:27:06.675Z,24.80
2018-06-10T23:29:35.666Z,24.90
2018-06-10T23:32:04.942Z,24.90
2018-06-10T23:34:33.919Z,24.80
2018-06-10T23:37:02.884Z,24.80
2018-06-10T23:42:00.564Z,24.80
2018-06-10T23:44:29.533Z,24.80
2018-06-10T23:46:58.672Z,24.80
2018-06-10T23:54:26.329Z,24.80
2018-06-10T23:56:55.818Z,24.80
2018-06-10T23:59:24.941Z,24.80
